sensor_id;sensor_type;location;lat;lon;timestamp;P1;durP1;ratioP1;P2;durP2;ratioP2
4174;SDS011;2101;48.290;14.382;2023-05-16T00:01:24;49.93;;;9.70;;
4174;SDS011;2101;48.290;14.382;2023-05-16T00:04:01;43.87;;;8.37;;
4174;SDS011;2101;48.290;14.382;2023-05-16T00:06:32;33.23;;;8.47;;
4174;SDS011;2101;48.290;14.382;2023-05-16T00:09:21;64.23;;;8.47;;
4174;SDS011;2101;48.290;14.382;2023-05-16T00:14:55;27.67;;;6.80;;
4174;SDS011;2101;48.290;14.382;2023-05-16T00:18:00;23.20;;;6.60;;
4174;SDS011;2101;48.290;14.382;2023-05-16T00:21:00;21.93;;;6.63;;
4174;SDS011;2101;48.290;14.382;2023-05-16T00:24:15;20.80;;;5.67;;
4174;SDS011;2101;48.290;14.382;2023-05-16T00:26:44;29.83;;;6.20;;
4174;SDS011;2101;48.290;14.382;2023-05-16T00:29:12;24.07;;;6.33;;
4174;SDS011;2101;48.290;14.382;2023-05-16T00:31:53;22.37;;;6.30;;
4174;SDS011;2101;48.290;14.382;2023-05-16T00:34:42;44.73;;;6.13;;
4174;SDS011;2101;48.290;14.382;2023-05-16T00:37:09;199.13;;;11.77;;
4174;SDS011;2101;48.290;14.382;2023-05-16T00:40:18;342.13;;;16.93;;
4174;SDS011;2101;48.290;14.382;2023-05-16T00:52:41;381.87;;;17.90;;
4174;SDS011;2101;48.290;14.382;2023-05-16T02:59:17;29.80;;;6.83;;
4174;SDS011;2101;48.290;14.382;2023-05-16T03:02:22;34.47;;;7.80;;
4174;SDS011;2101;48.290;14.382;2023-05-16T03:08:36;32.07;;;7.03;;
4174;SDS011;2101;48.290;14.382;2023-05-16T03:11:57;25.57;;;6.70;;
4174;SDS011;2101;48.290;14.382;2023-05-16T03:21:28;34.57;;;8.57;;
4174;SDS011;2101;48.290;14.382;2023-05-16T03:37:14;405.63;;;12.70;;
4174;SDS011;2101;48.290;14.382;2023-05-16T03:59:45;33.33;;;8.33;;
4174;SDS011;2101;48.290;14.382;2023-05-16T04:11:11;145.40;;;7.67;;
4174;SDS011;2101;48.290;14.382;2023-05-16T04:14:03;83.87;;;6.43;;
4174;SDS011;2101;48.290;14.382;2023-05-16T04:16:30;56.30;;;7.60;;
4174;SDS011;2101;48.290;14.382;2023-05-16T04:21:51;42.77;;;11.00;;
4174;SDS011;2101;48.290;14.382;2023-05-16T04:24:17;35.70;;;10.73;;
4174;SDS011;2101;48.290;14.382;2023-05-16T04:26:47;41.23;;;8.93;;
4174;SDS011;2101;48.290;14.382;2023-05-16T04:29:13;27.63;;;8.67;;
4174;SDS011;2101;48.290;14.382;2023-05-16T04:31:41;73.93;;;10.60;;
4174;SDS011;2101;48.290;14.382;2023-05-16T04:34:08;184.37;;;11.87;;
4174;SDS011;2101;48.290;14.382;2023-05-16T04:36:34;222.03;;;12.97;;
4174;SDS011;2101;48.290;14.382;2023-05-16T04:39:22;181.57;;;10.23;;
4174;SDS011;2101;48.290;14.382;2023-05-16T04:41:54;94.67;;;7.97;;
4174;SDS011;2101;48.290;14.382;2023-05-16T04:44:28;63.70;;;8.47;;
4174;SDS011;2101;48.290;14.382;2023-05-16T04:46:57;35.70;;;7.80;;
4174;SDS011;2101;48.290;14.382;2023-05-16T04:49:37;36.50;;;8.70;;
4174;SDS011;2101;48.290;14.382;2023-05-16T04:52:06;37.00;;;10.07;;
4174;SDS011;2101;48.290;14.382;2023-05-16T04:54:39;58.40;;;10.43;;
4174;SDS011;2101;48.290;14.382;2023-05-16T04:57:05;46.90;;;11.93;;
4174;SDS011;2101;48.290;14.382;2023-05-16T04:59:31;46.60;;;9.50;;
4174;SDS011;2101;48.290;14.382;2023-05-16T05:01:57;38.90;;;9.30;;
4174;SDS011;2101;48.290;14.382;2023-05-16T05:04:24;105.10;;;11.50;;
4174;SDS011;2101;48.290;14.382;2023-05-16T05:06:50;71.93;;;12.67;;
4174;SDS011;2101;48.290;14.382;2023-05-16T05:09:16;51.07;;;13.43;;
4174;SDS011;2101;48.290;14.382;2023-05-16T05:11:42;62.40;;;15.97;;
4174;SDS011;2101;48.290;14.382;2023-05-16T05:14:11;62.90;;;15.97;;
4174;SDS011;2101;48.290;14.382;2023-05-16T05:16:37;80.33;;;17.67;;
4174;SDS011;2101;48.290;14.382;2023-05-16T05:19:04;108.13;;;25.90;;
4174;SDS011;2101;48.290;14.382;2023-05-16T05:21:30;153.70;;;26.00;;
4174;SDS011;2101;48.290;14.382;2023-05-16T05:23:56;256.33;;;24.70;;
4174;SDS011;2101;48.290;14.382;2023-05-16T05:26:23;287.57;;;25.07;;
4174;SDS011;2101;48.290;14.382;2023-05-16T05:28:50;232.23;;;24.20;;
4174;SDS011;2101;48.290;14.382;2023-05-16T05:31:16;162.23;;;21.40;;
4174;SDS011;2101;48.290;14.382;2023-05-16T05:33:42;85.60;;;19.53;;
4174;SDS011;2101;48.290;14.382;2023-05-16T05:36:08;89.77;;;21.60;;
4174;SDS011;2101;48.290;14.382;2023-05-16T05:38:37;90.33;;;24.13;;
4174;SDS011;2101;48.290;14.382;2023-05-16T05:41:03;85.43;;;21.70;;
4174;SDS011;2101;48.290;14.382;2023-05-16T05:43:30;88.10;;;21.83;;
4174;SDS011;2101;48.290;14.382;2023-05-16T05:45:56;170.20;;;24.87;;
4174;SDS011;2101;48.290;14.382;2023-05-16T05:48:23;99.93;;;24.10;;
4174;SDS011;2101;48.290;14.382;2023-05-16T05:50:49;102.73;;;27.43;;
4174;SDS011;2101;48.290;14.382;2023-05-16T05:53:16;103.13;;;26.07;;
4174;SDS011;2101;48.290;14.382;2023-05-16T05:55:42;108.73;;;24.03;;
4174;SDS011;2101;48.290;14.382;2023-05-16T05:58:08;152.70;;;27.23;;
4174;SDS011;2101;48.290;14.382;2023-05-16T06:00:34;136.33;;;27.20;;
4174;SDS011;2101;48.290;14.382;2023-05-16T06:03:00;160.10;;;25.53;;
4174;SDS011;2101;48.290;14.382;2023-05-16T06:05:26;100.00;;;24.53;;
4174;SDS011;2101;48.290;14.382;2023-05-16T06:07:52;137.90;;;26.73;;
4174;SDS011;2101;48.290;14.382;2023-05-16T06:10:19;142.30;;;28.23;;
4174;SDS011;2101;48.290;14.382;2023-05-16T06:12:45;197.03;;;26.90;;
4174;SDS011;2101;48.290;14.382;2023-05-16T06:15:11;98.40;;;26.13;;
4174;SDS011;2101;48.290;14.382;2023-05-16T06:17:37;80.60;;;24.27;;
4174;SDS011;2101;48.290;14.382;2023-05-16T06:20:04;97.43;;;23.67;;
4174;SDS011;2101;48.290;14.382;2023-05-16T06:22:30;103.53;;;25.50;;
4174;SDS011;2101;48.290;14.382;2023-05-16T06:24:56;105.80;;;27.53;;
4174;SDS011;2101;48.290;14.382;2023-05-16T06:27:22;111.93;;;27.03;;
4174;SDS011;2101;48.290;14.382;2023-05-16T06:29:48;159.33;;;27.33;;
4174;SDS011;2101;48.290;14.382;2023-05-16T06:32:14;94.50;;;25.90;;
4174;SDS011;2101;48.290;14.382;2023-05-16T06:34:41;104.57;;;27.40;;
4174;SDS011;2101;48.290;14.382;2023-05-16T06:37:07;122.43;;;28.87;;
4174;SDS011;2101;48.290;14.382;2023-05-16T06:39:33;99.17;;;28.33;;
4174;SDS011;2101;48.290;14.382;2023-05-16T06:41:59;136.83;;;28.20;;
4174;SDS011;2101;48.290;14.382;2023-05-16T06:44:25;115.17;;;28.90;;
4174;SDS011;2101;48.290;14.382;2023-05-16T06:46:51;102.20;;;27.80;;
4174;SDS011;2101;48.290;14.382;2023-05-16T06:49:17;119.20;;;27.30;;
4174;SDS011;2101;48.290;14.382;2023-05-16T06:51:44;95.60;;;26.27;;
4174;SDS011;2101;48.290;14.382;2023-05-16T06:54:10;124.33;;;27.43;;
4174;SDS011;2101;48.290;14.382;2023-05-16T06:56:36;110.57;;;28.27;;
4174;SDS011;2101;48.290;14.382;2023-05-16T06:59:02;111.73;;;28.20;;
4174;SDS011;2101;48.290;14.382;2023-05-16T07:01:28;116.70;;;26.70;;
4174;SDS011;2101;48.290;14.382;2023-05-16T07:03:54;95.37;;;24.37;;
4174;SDS011;2101;48.290;14.382;2023-05-16T07:06:20;87.30;;;24.23;;
4174;SDS011;2101;48.290;14.382;2023-05-16T07:08:46;87.03;;;25.70;;
4174;SDS011;2101;48.290;14.382;2023-05-16T07:11:12;110.57;;;28.50;;
4174;SDS011;2101;48.290;14.382;2023-05-16T07:13:38;102.33;;;29.27;;
4174;SDS011;2101;48.290;14.382;2023-05-16T07:16:08;112.77;;;30.17;;
4174;SDS011;2101;48.290;14.382;2023-05-16T07:18:34;124.10;;;31.13;;
4174;SDS011;2101;48.290;14.382;2023-05-16T07:21:00;109.07;;;28.33;;
4174;SDS011;2101;48.290;14.382;2023-05-16T07:23:26;89.27;;;25.43;;
4174;SDS011;2101;48.290;14.382;2023-05-16T07:25:52;115.43;;;26.17;;
4174;SDS011;2101;48.290;14.382;2023-05-16T07:28:18;105.20;;;25.80;;
4174;SDS011;2101;48.290;14.382;2023-05-16T07:30:46;110.20;;;27.17;;
4174;SDS011;2101;48.290;14.382;2023-05-16T07:33:12;109.63;;;27.67;;
4174;SDS011;2101;48.290;14.382;2023-05-16T07:35:38;88.73;;;26.87;;
4174;SDS011;2101;48.290;14.382;2023-05-16T07:38:04;117.57;;;33.47;;
4174;SDS011;2101;48.290;14.382;2023-05-16T07:40:30;121.70;;;35.40;;
4174;SDS011;2101;48.290;14.382;2023-05-16T07:42:56;123.97;;;32.47;;
4174;SDS011;2101;48.290;14.382;2023-05-16T07:45:23;141.73;;;35.57;;
4174;SDS011;2101;48.290;14.382;2023-05-16T07:47:49;138.87;;;34.27;;
4174;SDS011;2101;48.290;14.382;2023-05-16T07:50:18;101.30;;;31.77;;
4174;SDS011;2101;48.290;14.382;2023-05-16T07:52:44;135.30;;;34.80;;
4174;SDS011;2101;48.290;14.382;2023-05-16T07:55:11;114.43;;;33.97;;
4174;SDS011;2101;48.290;14.382;2023-05-16T07:57:37;110.37;;;32.57;;
4174;SDS011;2101;48.290;14.382;2023-05-16T08:00:03;124.20;;;33.07;;
4174;SDS011;2101;48.290;14.382;2023-05-16T08:02:30;135.17;;;38.77;;
4174;SDS011;2101;48.290;14.382;2023-05-16T08:04:56;154.83;;;40.80;;
4174;SDS011;2101;48.290;14.382;2023-05-16T08:07:22;141.57;;;40.43;;
4174;SDS011;2101;48.290;14.382;2023-05-16T08:09:48;146.10;;;41.93;;
4174;SDS011;2101;48.290;14.382;2023-05-16T08:12:17;137.47;;;40.63;;
4174;SDS011;2101;48.290;14.382;2023-05-16T08:14:43;155.30;;;43.70;;
4174;SDS011;2101;48.290;14.382;2023-05-16T08:17:12;144.57;;;44.30;;
4174;SDS011;2101;48.290;14.382;2023-05-16T08:19:38;182.57;;;49.43;;
4174;SDS011;2101;48.290;14.382;2023-05-16T08:22:05;191.00;;;51.63;;
4174;SDS011;2101;48.290;14.382;2023-05-16T08:24:31;184.07;;;51.07;;
4174;SDS011;2101;48.290;14.382;2023-05-16T08:26:58;190.33;;;48.60;;
4174;SDS011;2101;48.290;14.382;2023-05-16T08:29:24;162.80;;;48.10;;
4174;SDS011;2101;48.290;14.382;2023-05-16T08:31:50;182.63;;;51.13;;
4174;SDS011;2101;48.290;14.382;2023-05-16T08:34:16;174.67;;;50.03;;
4174;SDS011;2101;48.290;14.382;2023-05-16T08:36:42;142.30;;;45.20;;
4174;SDS011;2101;48.290;14.382;2023-05-16T08:39:09;149.50;;;44.50;;
4174;SDS011;2101;48.290;14.382;2023-05-16T08:41:35;128.23;;;37.27;;
4174;SDS011;2101;48.290;14.382;2023-05-16T08:44:02;122.60;;;37.60;;
4174;SDS011;2101;48.290;14.382;2023-05-16T08:46:28;129.13;;;38.40;;
4174;SDS011;2101;48.290;14.382;2023-05-16T08:48:57;118.97;;;35.87;;
4174;SDS011;2101;48.290;14.382;2023-05-16T08:51:24;138.00;;;37.17;;
4174;SDS011;2101;48.290;14.382;2023-05-16T08:53:55;121.67;;;34.77;;
4174;SDS011;2101;48.290;14.382;2023-05-16T08:56:22;111.80;;;37.00;;
4174;SDS011;2101;48.290;14.382;2023-05-16T08:58:49;138.17;;;36.80;;
4174;SDS011;2101;48.290;14.382;2023-05-16T09:01:19;127.20;;;38.77;;
4174;SDS011;2101;48.290;14.382;2023-05-16T09:03:52;123.10;;;38.73;;
4174;SDS011;2101;48.290;14.382;2023-05-16T09:06:18;115.50;;;36.73;;
4174;SDS011;2101;48.290;14.382;2023-05-16T09:08:44;129.03;;;36.87;;
4174;SDS011;2101;48.290;14.382;2023-05-16T09:11:10;126.13;;;37.17;;
4174;SDS011;2101;48.290;14.382;2023-05-16T09:13:37;121.13;;;36.47;;
4174;SDS011;2101;48.290;14.382;2023-05-16T09:16:19;133.93;;;39.70;;
4174;SDS011;2101;48.290;14.382;2023-05-16T09:18:52;126.77;;;38.07;;
4174;SDS011;2101;48.290;14.382;2023-05-16T09:21:22;125.07;;;38.40;;
4174;SDS011;2101;48.290;14.382;2023-05-16T09:23:48;159.20;;;37.77;;
4174;SDS011;2101;48.290;14.382;2023-05-16T09:26:15;118.17;;;35.13;;
4174;SDS011;2101;48.290;14.382;2023-05-16T09:28:41;142.93;;;41.50;;
4174;SDS011;2101;48.290;14.382;2023-05-16T09:33:47;119.97;;;37.30;;
4174;SDS011;2101;48.290;14.382;2023-05-16T09:36:16;129.07;;;36.40;;
4174;SDS011;2101;48.290;14.382;2023-05-16T09:38:42;121.83;;;35.90;;
4174;SDS011;2101;48.290;14.382;2023-05-16T09:41:09;121.90;;;36.90;;
4174;SDS011;2101;48.290;14.382;2023-05-16T09:43:37;115.50;;;35.00;;
4174;SDS011;2101;48.290;14.382;2023-05-16T09:46:04;108.57;;;32.47;;
4174;SDS011;2101;48.290;14.382;2023-05-16T09:48:30;111.90;;;34.77;;
4174;SDS011;2101;48.290;14.382;2023-05-16T09:50:57;112.97;;;33.73;;
4174;SDS011;2101;48.290;14.382;2023-05-16T09:53:30;107.47;;;30.13;;
4174;SDS011;2101;48.290;14.382;2023-05-16T09:58:30;105.63;;;29.77;;
4174;SDS011;2101;48.290;14.382;2023-05-16T10:00:56;88.43;;;28.20;;
4174;SDS011;2101;48.290;14.382;2023-05-16T10:03:23;125.17;;;32.03;;
4174;SDS011;2101;48.290;14.382;2023-05-16T10:05:49;108.60;;;30.80;;
4174;SDS011;2101;48.290;14.382;2023-05-16T10:08:18;118.80;;;35.83;;
4174;SDS011;2101;48.290;14.382;2023-05-16T10:10:45;116.43;;;34.30;;
4174;SDS011;2101;48.290;14.382;2023-05-16T10:13:12;116.87;;;33.50;;
4174;SDS011;2101;48.290;14.382;2023-05-16T10:15:39;114.37;;;33.00;;
4174;SDS011;2101;48.290;14.382;2023-05-16T10:18:06;113.47;;;33.93;;
4174;SDS011;2101;48.290;14.382;2023-05-16T10:20:37;109.20;;;32.03;;
4174;SDS011;2101;48.290;14.382;2023-05-16T10:23:03;99.63;;;30.77;;
4174;SDS011;2101;48.290;14.382;2023-05-16T10:25:34;97.67;;;29.40;;
4174;SDS011;2101;48.290;14.382;2023-05-16T10:28:01;112.50;;;30.57;;
4174;SDS011;2101;48.290;14.382;2023-05-16T10:30:28;114.87;;;31.70;;
4174;SDS011;2101;48.290;14.382;2023-05-16T10:32:54;93.00;;;30.37;;
4174;SDS011;2101;48.290;14.382;2023-05-16T10:35:21;92.87;;;28.23;;
4174;SDS011;2101;48.290;14.382;2023-05-16T10:37:47;110.67;;;30.23;;
4174;SDS011;2101;48.290;14.382;2023-05-16T10:40:17;107.37;;;28.90;;
4174;SDS011;2101;48.290;14.382;2023-05-16T10:42:43;103.70;;;31.43;;
4174;SDS011;2101;48.290;14.382;2023-05-16T10:45:19;98.73;;;27.97;;
4174;SDS011;2101;48.290;14.382;2023-05-16T10:47:59;89.07;;;29.07;;
4174;SDS011;2101;48.290;14.382;2023-05-16T10:53:11;88.53;;;27.80;;
4174;SDS011;2101;48.290;14.382;2023-05-16T11:06:25;94.97;;;21.70;;
4174;SDS011;2101;48.290;14.382;2023-05-16T11:14:18;61.33;;;18.80;;
4174;SDS011;2101;48.290;14.382;2023-05-16T11:16:53;49.53;;;16.77;;
4174;SDS011;2101;48.290;14.382;2023-05-16T11:19:29;55.87;;;15.90;;
4174;SDS011;2101;48.290;14.382;2023-05-16T11:22:06;53.60;;;15.97;;
4174;SDS011;2101;48.290;14.382;2023-05-16T11:24:34;49.67;;;15.60;;
4174;SDS011;2101;48.290;14.382;2023-05-16T11:27:10;53.77;;;16.07;;
4174;SDS011;2101;48.290;14.382;2023-05-16T11:29:41;53.80;;;15.13;;
4174;SDS011;2101;48.290;14.382;2023-05-16T11:32:27;52.90;;;17.47;;
4174;SDS011;2101;48.290;14.382;2023-05-16T11:35:12;55.37;;;16.23;;
4174;SDS011;2101;48.290;14.382;2023-05-16T11:37:59;50.97;;;17.07;;
4174;SDS011;2101;48.290;14.382;2023-05-16T11:41:07;52.40;;;17.10;;
4174;SDS011;2101;48.290;14.382;2023-05-16T11:44:11;47.07;;;17.13;;
4174;SDS011;2101;48.290;14.382;2023-05-16T11:47:19;53.47;;;19.80;;
4174;SDS011;2101;48.290;14.382;2023-05-16T11:50:34;49.23;;;17.20;;
4174;SDS011;2101;48.290;14.382;2023-05-16T11:53:06;58.03;;;18.90;;
4174;SDS011;2101;48.290;14.382;2023-05-16T11:56:02;50.77;;;17.30;;
4174;SDS011;2101;48.290;14.382;2023-05-16T11:58:28;47.70;;;15.53;;
4174;SDS011;2101;48.290;14.382;2023-05-16T12:10:34;53.43;;;17.40;;
4174;SDS011;2101;48.290;14.382;2023-05-16T12:13:33;43.37;;;14.90;;
4174;SDS011;2101;48.290;14.382;2023-05-16T12:16:01;44.13;;;17.60;;
4174;SDS011;2101;48.290;14.382;2023-05-16T12:18:33;49.17;;;17.77;;
4174;SDS011;2101;48.290;14.382;2023-05-16T12:21:05;53.70;;;16.43;;
4174;SDS011;2101;48.290;14.382;2023-05-16T12:23:33;52.37;;;18.10;;
4174;SDS011;2101;48.290;14.382;2023-05-16T12:25:59;48.13;;;16.53;;
4174;SDS011;2101;48.290;14.382;2023-05-16T12:28:29;52.23;;;14.83;;
4174;SDS011;2101;48.290;14.382;2023-05-16T12:31:00;39.50;;;13.63;;
4174;SDS011;2101;48.290;14.382;2023-05-16T12:33:26;36.90;;;13.30;;
4174;SDS011;2101;48.290;14.382;2023-05-16T12:35:55;42.60;;;15.00;;
4174;SDS011;2101;48.290;14.382;2023-05-16T12:38:21;31.90;;;12.37;;
4174;SDS011;2101;48.290;14.382;2023-05-16T12:40:50;43.70;;;14.23;;
4174;SDS011;2101;48.290;14.382;2023-05-16T12:43:22;42.77;;;15.67;;
4174;SDS011;2101;48.290;14.382;2023-05-16T12:45:52;41.70;;;14.00;;
4174;SDS011;2101;48.290;14.382;2023-05-16T12:48:19;35.93;;;13.50;;
4174;SDS011;2101;48.290;14.382;2023-05-16T12:50:45;33.27;;;12.83;;
4174;SDS011;2101;48.290;14.382;2023-05-16T12:53:13;35.00;;;11.30;;
4174;SDS011;2101;48.290;14.382;2023-05-16T12:55:40;33.77;;;12.43;;
4174;SDS011;2101;48.290;14.382;2023-05-16T12:58:07;32.43;;;11.30;;
4174;SDS011;2101;48.290;14.382;2023-05-16T13:00:33;27.97;;;9.50;;
4174;SDS011;2101;48.290;14.382;2023-05-16T13:03:00;26.30;;;8.87;;
4174;SDS011;2101;48.290;14.382;2023-05-16T13:05:27;35.50;;;9.60;;
4174;SDS011;2101;48.290;14.382;2023-05-16T13:07:53;26.70;;;8.30;;
4174;SDS011;2101;48.290;14.382;2023-05-16T13:10:21;24.87;;;9.10;;
4174;SDS011;2101;48.290;14.382;2023-05-16T13:12:49;25.53;;;8.37;;
4174;SDS011;2101;48.290;14.382;2023-05-16T13:15:24;24.03;;;8.63;;
4174;SDS011;2101;48.290;14.382;2023-05-16T13:18:03;23.53;;;7.43;;
4174;SDS011;2101;48.290;14.382;2023-05-16T13:20:30;26.30;;;7.87;;
4174;SDS011;2101;48.290;14.382;2023-05-16T13:22:57;26.77;;;9.00;;
4174;SDS011;2101;48.290;14.382;2023-05-16T13:25:23;26.83;;;8.17;;
4174;SDS011;2101;48.290;14.382;2023-05-16T13:27:51;25.57;;;8.80;;
4174;SDS011;2101;48.290;14.382;2023-05-16T13:30:17;24.83;;;8.40;;
4174;SDS011;2101;48.290;14.382;2023-05-16T13:32:43;29.33;;;8.77;;
4174;SDS011;2101;48.290;14.382;2023-05-16T13:35:09;26.73;;;8.33;;
4174;SDS011;2101;48.290;14.382;2023-05-16T13:37:36;24.43;;;8.47;;
4174;SDS011;2101;48.290;14.382;2023-05-16T13:40:02;25.37;;;8.00;;
4174;SDS011;2101;48.290;14.382;2023-05-16T13:42:28;25.23;;;7.50;;
4174;SDS011;2101;48.290;14.382;2023-05-16T13:44:55;24.03;;;7.53;;
4174;SDS011;2101;48.290;14.382;2023-05-16T13:47:31;22.60;;;8.20;;
4174;SDS011;2101;48.290;14.382;2023-05-16T13:50:17;26.27;;;8.37;;
4174;SDS011;2101;48.290;14.382;2023-05-16T13:52:43;25.00;;;8.50;;
4174;SDS011;2101;48.290;14.382;2023-05-16T13:55:11;23.57;;;7.93;;
4174;SDS011;2101;48.290;14.382;2023-05-16T13:57:38;26.30;;;8.40;;
4174;SDS011;2101;48.290;14.382;2023-05-16T14:00:05;23.60;;;7.73;;
4174;SDS011;2101;48.290;14.382;2023-05-16T14:02:38;22.03;;;6.90;;
4174;SDS011;2101;48.290;14.382;2023-05-16T14:05:19;25.13;;;8.40;;
4174;SDS011;2101;48.290;14.382;2023-05-16T14:07:50;21.60;;;7.00;;
4174;SDS011;2101;48.290;14.382;2023-05-16T14:10:25;22.77;;;7.33;;
4174;SDS011;2101;48.290;14.382;2023-05-16T14:15:56;39.20;;;7.67;;
4174;SDS011;2101;48.290;14.382;2023-05-16T14:18:48;19.77;;;6.50;;
4174;SDS011;2101;48.290;14.382;2023-05-16T14:21:50;23.27;;;7.47;;
4174;SDS011;2101;48.290;14.382;2023-05-16T14:24:39;18.60;;;5.13;;
4174;SDS011;2101;48.290;14.382;2023-05-16T14:27:06;19.40;;;5.23;;
4174;SDS011;2101;48.290;14.382;2023-05-16T14:29:33;17.40;;;4.67;;
4174;SDS011;2101;48.290;14.382;2023-05-16T14:31:59;17.47;;;4.17;;
4174;SDS011;2101;48.290;14.382;2023-05-16T14:34:28;17.10;;;4.60;;
4174;SDS011;2101;48.290;14.382;2023-05-16T14:36:54;17.70;;;4.83;;
4174;SDS011;2101;48.290;14.382;2023-05-16T14:39:20;20.03;;;5.60;;
4174;SDS011;2101;48.290;14.382;2023-05-16T14:41:46;19.93;;;5.97;;
4174;SDS011;2101;48.290;14.382;2023-05-16T14:44:12;22.13;;;6.67;;
4174;SDS011;2101;48.290;14.382;2023-05-16T14:46:38;21.37;;;6.10;;
4174;SDS011;2101;48.290;14.382;2023-05-16T14:49:05;20.70;;;5.70;;
4174;SDS011;2101;48.290;14.382;2023-05-16T14:51:31;19.17;;;5.70;;
4174;SDS011;2101;48.290;14.382;2023-05-16T14:54:00;19.40;;;6.07;;
4174;SDS011;2101;48.290;14.382;2023-05-16T14:56:26;18.63;;;5.70;;
4174;SDS011;2101;48.290;14.382;2023-05-16T14:58:52;19.10;;;5.60;;
4174;SDS011;2101;48.290;14.382;2023-05-16T15:01:19;20.17;;;6.47;;
4174;SDS011;2101;48.290;14.382;2023-05-16T15:03:46;21.87;;;4.50;;
4174;SDS011;2101;48.290;14.382;2023-05-16T15:06:12;20.70;;;6.20;;
4174;SDS011;2101;48.290;14.382;2023-05-16T15:08:38;18.37;;;5.80;;
4174;SDS011;2101;48.290;14.382;2023-05-16T15:11:05;19.20;;;5.30;;
4174;SDS011;2101;48.290;14.382;2023-05-16T15:13:31;18.00;;;4.90;;
4174;SDS011;2101;48.290;14.382;2023-05-16T15:15:57;17.73;;;5.30;;
4174;SDS011;2101;48.290;14.382;2023-05-16T15:18:23;22.50;;;5.07;;
4174;SDS011;2101;48.290;14.382;2023-05-16T15:20:49;18.40;;;5.40;;
4174;SDS011;2101;48.290;14.382;2023-05-16T15:23:17;20.37;;;4.90;;
4174;SDS011;2101;48.290;14.382;2023-05-16T15:25:43;23.37;;;5.50;;
4174;SDS011;2101;48.290;14.382;2023-05-16T15:28:09;18.10;;;5.30;;
4174;SDS011;2101;48.290;14.382;2023-05-16T15:30:37;18.20;;;5.40;;
4174;SDS011;2101;48.290;14.382;2023-05-16T15:33:09;18.60;;;4.93;;
4174;SDS011;2101;48.290;14.382;2023-05-16T15:35:35;19.33;;;5.70;;
4174;SDS011;2101;48.290;14.382;2023-05-16T15:38:01;18.37;;;5.23;;
4174;SDS011;2101;48.290;14.382;2023-05-16T15:40:27;20.40;;;5.77;;
4174;SDS011;2101;48.290;14.382;2023-05-16T15:42:53;19.00;;;5.60;;
4174;SDS011;2101;48.290;14.382;2023-05-16T15:45:19;19.00;;;5.50;;
4174;SDS011;2101;48.290;14.382;2023-05-16T15:47:45;21.63;;;6.10;;
4174;SDS011;2101;48.290;14.382;2023-05-16T15:50:12;18.17;;;5.27;;
4174;SDS011;2101;48.290;14.382;2023-05-16T15:52:38;20.73;;;5.10;;
4174;SDS011;2101;48.290;14.382;2023-05-16T15:55:05;20.23;;;6.40;;
4174;SDS011;2101;48.290;14.382;2023-05-16T15:57:31;21.33;;;5.57;;
4174;SDS011;2101;48.290;14.382;2023-05-16T15:59:57;23.83;;;6.80;;
4174;SDS011;2101;48.290;14.382;2023-05-16T16:02:23;18.20;;;5.53;;
4174;SDS011;2101;48.290;14.382;2023-05-16T16:04:49;19.87;;;5.60;;
4174;SDS011;2101;48.290;14.382;2023-05-16T16:07:16;26.20;;;6.00;;
4174;SDS011;2101;48.290;14.382;2023-05-16T16:09:42;18.73;;;6.00;;
4174;SDS011;2101;48.290;14.382;2023-05-16T16:12:09;18.40;;;5.30;;
4174;SDS011;2101;48.290;14.382;2023-05-16T16:14:36;20.80;;;7.00;;
4174;SDS011;2101;48.290;14.382;2023-05-16T16:17:02;23.27;;;5.60;;
4174;SDS011;2101;48.290;14.382;2023-05-16T16:19:29;19.10;;;5.70;;
4174;SDS011;2101;48.290;14.382;2023-05-16T16:21:55;18.77;;;5.73;;
4174;SDS011;2101;48.290;14.382;2023-05-16T16:24:21;20.73;;;5.30;;
4174;SDS011;2101;48.290;14.382;2023-05-16T16:26:47;18.47;;;5.00;;
4174;SDS011;2101;48.290;14.382;2023-05-16T16:29:13;16.63;;;4.27;;
4174;SDS011;2101;48.290;14.382;2023-05-16T16:31:43;16.27;;;4.00;;
4174;SDS011;2101;48.290;14.382;2023-05-16T16:34:09;20.30;;;4.60;;
4174;SDS011;2101;48.290;14.382;2023-05-16T16:36:35;17.47;;;4.60;;
4174;SDS011;2101;48.290;14.382;2023-05-16T16:39:01;19.00;;;5.00;;
4174;SDS011;2101;48.290;14.382;2023-05-16T16:41:29;20.23;;;6.03;;
4174;SDS011;2101;48.290;14.382;2023-05-16T16:44:01;19.87;;;5.30;;
4174;SDS011;2101;48.290;14.382;2023-05-16T16:46:27;20.40;;;6.43;;
4174;SDS011;2101;48.290;14.382;2023-05-16T16:48:54;22.37;;;6.30;;
4174;SDS011;2101;48.290;14.382;2023-05-16T16:51:20;25.10;;;6.10;;
4174;SDS011;2101;48.290;14.382;2023-05-16T16:53:46;22.23;;;7.57;;
4174;SDS011;2101;48.290;14.382;2023-05-16T16:56:12;32.60;;;9.67;;
4174;SDS011;2101;48.290;14.382;2023-05-16T16:58:38;27.63;;;9.10;;
4174;SDS011;2101;48.290;14.382;2023-05-16T17:01:04;31.17;;;9.50;;
4174;SDS011;2101;48.290;14.382;2023-05-16T17:03:31;29.87;;;11.13;;
4174;SDS011;2101;48.290;14.382;2023-05-16T17:05:57;29.73;;;10.07;;
4174;SDS011;2101;48.290;14.382;2023-05-16T17:08:24;37.73;;;12.43;;
4174;SDS011;2101;48.290;14.382;2023-05-16T17:10:50;38.30;;;13.93;;
4174;SDS011;2101;48.290;14.382;2023-05-16T17:13:16;30.17;;;11.23;;
4174;SDS011;2101;48.290;14.382;2023-05-16T17:15:42;30.97;;;11.00;;
4174;SDS011;2101;48.290;14.382;2023-05-16T17:18:09;28.37;;;9.50;;
4174;SDS011;2101;48.290;14.382;2023-05-16T17:20:35;31.50;;;10.80;;
4174;SDS011;2101;48.290;14.382;2023-05-16T17:23:02;28.17;;;9.87;;
4174;SDS011;2101;48.290;14.382;2023-05-16T17:25:31;25.47;;;8.37;;
4174;SDS011;2101;48.290;14.382;2023-05-16T17:27:57;32.07;;;9.73;;
4174;SDS011;2101;48.290;14.382;2023-05-16T17:30:23;30.40;;;8.80;;
4174;SDS011;2101;48.290;14.382;2023-05-16T17:32:54;25.70;;;9.17;;
4174;SDS011;2101;48.290;14.382;2023-05-16T17:35:20;29.83;;;10.03;;
4174;SDS011;2101;48.290;14.382;2023-05-16T17:37:51;30.40;;;9.43;;
4174;SDS011;2101;48.290;14.382;2023-05-16T17:40:17;27.50;;;9.63;;
4174;SDS011;2101;48.290;14.382;2023-05-16T17:42:50;31.37;;;9.37;;
4174;SDS011;2101;48.290;14.382;2023-05-16T17:45:17;28.30;;;9.73;;
4174;SDS011;2101;48.290;14.382;2023-05-16T17:47:43;29.60;;;10.17;;
4174;SDS011;2101;48.290;14.382;2023-05-16T17:50:09;31.57;;;10.93;;
4174;SDS011;2101;48.290;14.382;2023-05-16T17:52:37;24.63;;;8.13;;
4174;SDS011;2101;48.290;14.382;2023-05-16T17:55:04;23.77;;;8.83;;
4174;SDS011;2101;48.290;14.382;2023-05-16T17:57:31;26.70;;;8.43;;
4174;SDS011;2101;48.290;14.382;2023-05-16T17:59:59;29.27;;;10.10;;
4174;SDS011;2101;48.290;14.382;2023-05-16T18:02:27;26.87;;;8.63;;
4174;SDS011;2101;48.290;14.382;2023-05-16T18:04:55;28.70;;;9.77;;
4174;SDS011;2101;48.290;14.382;2023-05-16T18:07:22;24.20;;;8.27;;
4174;SDS011;2101;48.290;14.382;2023-05-16T18:09:52;26.47;;;9.00;;
4174;SDS011;2101;48.290;14.382;2023-05-16T18:12:18;25.93;;;8.57;;
4174;SDS011;2101;48.290;14.382;2023-05-16T18:14:48;25.87;;;8.80;;
4174;SDS011;2101;48.290;14.382;2023-05-16T18:17:14;23.90;;;7.70;;
4174;SDS011;2101;48.290;14.382;2023-05-16T18:19:41;26.93;;;7.70;;
4174;SDS011;2101;48.290;14.382;2023-05-16T18:22:08;22.03;;;6.80;;
4174;SDS011;2101;48.290;14.382;2023-05-16T18:24:58;17.63;;;5.13;;
4174;SDS011;2101;48.290;14.382;2023-05-16T18:27:31;22.20;;;4.63;;
4174;SDS011;2101;48.290;14.382;2023-05-16T18:30:09;28.90;;;6.60;;
4174;SDS011;2101;48.290;14.382;2023-05-16T18:32:46;18.00;;;5.20;;
4174;SDS011;2101;48.290;14.382;2023-05-16T18:35:33;20.30;;;5.40;;
4174;SDS011;2101;48.290;14.382;2023-05-16T18:38:03;18.50;;;5.80;;
4174;SDS011;2101;48.290;14.382;2023-05-16T18:40:47;21.90;;;6.13;;